Time;durP1;ratioP1;P1;durP2;ratioP2;P2;SDS_P1;SDS_P2;PMS_P1;PMS_P2;Temp;Humidity;BMP_temperature;BMP_pressure;BME280_temperature;BME280_humidity;BME280_pressure;Samples;Min_cycle;Max_cycle;Signal;HPM_P1;HPM_P2
2022/08/20 00:00:48;;;;;;;5.55;1.00;;;;;;;18.04;100.00;99506.91;1659756;84;21520;-52
2022/08/20 00:03:22;;;;;;;7.20;1.12;;;;;;;18.01;100.00;99501.25;1659365;85;22233;-53
2022/08/20 00:05:56;;;;;;;2.50;0.95;;;;;;;17.99;100.00;99503.72;1660144;85;26336;-52
2022/08/20 00:08:22;;;;;;;;;;;;;;;17.93;100.00;99503.73;1667693;84;20903;-53
2022/08/20 00:10:51;;;;;;;7.87;1.20;;;;;;;17.90;100.00;99505.34;1662523;85;20132;-52
2022/08/20 00:13:29;;;;;;;5.85;1.55;;;;;;;17.87;100.00;99506.94;1668388;84;20906;-53
2022/08/20 00:15:55;;;;;;;3.98;1.55;;;;;;;17.84;100.00;99504.49;1731108;80;21072;-53
2022/08/20 00:18:23;;;;;;;1.32;1.05;;;;;;;17.78;100.00;99500.05;1734117;80;20918;-52
2022/08/20 00:20:52;;;;;;;1.20;0.95;;;;;;;17.70;100.00;99504.23;1730631;80;20981;-52
2022/08/20 00:23:18;;;;;;;1.22;0.80;;;;;;;17.61;100.00;99499.50;1731451;80;21112;-52
2022/08/20 00:25:45;;;;;;;5.25;1.25;;;;;;;17.53;100.00;99503.84;1729523;80;21045;-53
2022/08/20 00:28:11;;;;;;;1.90;0.82;;;;;;;17.45;100.00;99513.11;1726906;80;21130;-53
2022/08/20 00:30:40;;;;;;;1.30;1.00;;;;;;;17.37;100.00;99520.04;1734278;80;21537;-53
2022/08/20 00:33:10;;;;;;;0.93;0.80;;;;;;;17.34;100.00;99520.80;1729946;80;21096;-53
2022/08/20 00:35:43;;;;;;;3.77;1.00;;;;;;;17.32;100.00;99515.96;1730892;80;21062;-53
2022/08/20 00:38:09;;;;;;;2.05;0.90;;;;;;;17.33;100.00;99532.17;1733889;80;21532;-53
2022/08/20 00:40:44;;;;;;;2.95;0.90;;;;;;;17.36;100.00;99529.67;1692778;82;22873;-53
2022/08/20 00:43:31;;;;;;;1.17;0.85;;;;;;;17.37;100.00;99530.92;1728874;80;21061;-53
2022/08/20 00:45:59;;;;;;;4.37;0.90;;;;;;;17.37;100.00;99532.77;1732537;80;21092;-53
2022/08/20 00:48:30;;;;;;;6.90;0.80;;;;;;;17.35;100.00;99530.17;1731007;80;21053;-53
2022/08/20 00:51:12;;;;;;;2.75;0.80;;;;;;;17.33;100.00;99527.22;1730827;80;21092;-53
2022/08/20 00:53:39;;;;;;;2.15;0.80;;;;;;;17.30;100.00;99520.66;1735857;80;21124;-53
2022/08/20 00:56:06;;;;;;;1.47;0.90;;;;;;;17.25;100.00;99520.16;1729521;80;21154;-53
2022/08/20 00:58:33;;;;;;;1.57;0.93;;;;;;;17.19;100.00;99517.91;1727064;80;21076;-53
2022/08/20 01:00:59;;;;;;;2.33;1.35;;;;;;;17.17;100.00;99527.58;1731544;80;21061;-52
2022/08/20 01:03:26;;;;;;;1.05;0.95;;;;;;;17.16;100.00;99526.33;1699611;82;21104;-53
2022/08/20 01:05:52;;;;;;;1.42;0.88;;;;;;;17.14;100.00;99525.09;1733249;80;21543;-53
2022/08/20 01:08:23;;;;;;;1.52;0.85;;;;;;;17.11;100.00;99522.59;1732972;80;21116;-53
2022/08/20 01:10:52;;;;;;;3.47;0.80;;;;;;;17.09;100.00;99511.48;1723765;80;22131;-53
2022/08/20 01:13:22;;;;;;;1.10;0.85;;;;;;;17.09;100.00;99512.84;1693553;82;21476;-53
2022/08/20 01:15:51;;;;;;;1.67;1.07;;;;;;;17.10;100.00;99514.58;1733550;80;21128;-53
2022/08/20 01:18:24;;;;;;;2.20;0.80;;;;;;;17.11;100.00;99520.36;1730795;80;21467;-53
2022/08/20 01:20:59;;;;;;;1.42;0.80;;;;;;;17.11;100.00;99521.23;1731843;80;21030;-53
2022/08/20 01:23:52;;;;;;;1.35;0.82;;;;;;;17.11;100.00;99517.65;1731549;80;21037;-52
2022/08/20 01:26:24;;;;;;;2.40;1.00;;;;;;;17.10;100.00;99510.50;1733987;80;21069;-54
2022/08/20 01:28:58;;;;;;;4.35;1.10;;;;;;;17.05;100.00;99512.20;1728283;80;21029;-54
2022/08/20 01:31:28;;;;;;;1.27;0.80;;;;;;;17.00;100.00;99507.64;1735704;80;21045;-53
2022/08/20 01:33:56;;;;;;;1.62;1.10;;;;;;;16.94;100.00;99506.24;1731567;80;21025;-54
2022/08/20 01:36:30;;;;;;;1.27;0.80;;;;;;;16.93;100.00;99502.28;1730616;80;21049;-54
2022/08/20 01:38:59;;;;;;;1.80;0.80;;;;;;;16.91;100.00;99498.34;1736603;80;21045;-54
2022/08/20 01:42:12;;;;;;;1.72;0.85;;;;;;;16.91;100.00;99498.84;1738516;80;21054;-54
2022/08/20 01:44:39;;;;;;;1.00;0.90;;;;;;;16.90;100.00;99500.69;1725684;80;21799;-53
2022/08/20 01:47:27;;;;;;;1.67;1.07;;;;;;;16.87;100.00;99503.64;1693754;82;21097;-53
2022/08/20 01:49:58;;;;;;;1.12;0.80;;;;;;;16.84;100.00;99505.75;1670432;83;21061;-53
2022/08/20 01:52:53;;;;;;;2.77;0.80;;;;;;;16.80;100.00;99500.16;1662703;85;21110;-53
2022/08/20 01:55:20;;;;;;;2.33;0.80;;;;;;;16.76;100.00;99502.76;1652298;85;21096;-53
2022/08/20 01:57:47;;;;;;;2.40;0.90;;;;;;;16.66;100.00;99509.39;1706916;80;22025;-53
2022/08/20 02:00:16;;;;;;;1.00;0.80;;;;;;;16.60;100.00;99509.31;1726601;81;21057;-52
2022/08/20 02:02:43;;;;;;;1.92;0.90;;;;;;;16.54;100.00;99507.56;1732854;80;21057;-52
2022/08/20 02:05:10;;;;;;;0.82;0.75;;;;;;;16.52;100.00;99517.19;1727465;80;21818;-52
2022/08/20 02:07:36;;;;;;;2.17;0.75;;;;;;;16.49;100.00;99509.78;1730664;80;21556;-53
2022/08/20 02:10:07;;;;;;;1.95;0.90;;;;;;;16.46;100.00;99512.72;1733977;80;21123;-53
2022/08/20 02:12:34;;;;;;;1.27;0.80;;;;;;;16.45;100.00;99513.21;1727918;80;21332;-52
2022/08/20 02:15:01;;;;;;;1.50;0.80;;;;;;;16.43;100.00;99515.66;1729789;80;21104;-52
2022/08/20 02:17:29;;;;;;;1.22;0.80;;;;;;;16.40;100.00;99518.14;1730034;80;21065;-52
2022/08/20 02:20:02;;;;;;;1.45;0.98;;;;;;;16.38;100.00;99519.23;1733069;80;21042;-52
2022/08/20 02:22:43;;;;;;;3.00;1.12;;;;;;;16.36;100.00;99515.27;1731110;80;21207;-53
2022/08/20 02:25:10;;;;;;;2.02;0.80;;;;;;;16.31;100.00;99512.05;1735939;80;21089;-53
2022/08/20 02:27:39;;;;;;;7.15;0.80;;;;;;;16.23;100.00;99517.19;1732712;80;21089;-53
2022/08/20 02:30:10;;;;;;;0.90;0.80;;;;;;;16.17;100.00;99512.19;1728497;80;21144;-52
2022/08/20 02:32:38;;;;;;;1.07;0.90;;;;;;;16.12;100.00;99508.48;1735902;80;21025;-53
2022/08/20 02:35:09;;;;;;;0.95;0.85;;;;;;;16.10;100.00;99505.49;1733653;80;22239;-52
2022/08/20 02:37:36;;;;;;;0.95;0.80;;;;;;;16.07;100.00;99501.67;1738254;80;21429;-52
2022/08/20 02:40:06;;;;;;;4.80;0.85;;;;;;;16.05;100.00;99502.27;1735523;80;20931;-53
2022/08/20 02:42:34;;;;;;;1.57;1.00;;;;;;;16.05;100.00;99504.50;1745378;80;20883;-53
2022/08/20 02:45:03;;;;;;;2.40;0.90;;;;;;;16.06;100.00;99505.36;1741683;80;21439;-53
2022/08/20 02:47:30;;;;;;;1.50;1.10;;;;;;;16.08;100.00;99500.66;1730948;80;21621;-53
2022/08/20 02:49:58;;;;;;;3.00;0.80;;;;;;;16.12;100.00;99498.11;1737400;80;21511;-53
2022/08/20 02:52:25;;;;;;;1.10;1.00;;;;;;;16.15;100.00;99500.61;1730025;80;20990;-53
2022/08/20 02:54:51;;;;;;;1.10;0.80;;;;;;;16.17;100.00;99503.56;1743254;80;21078;-52
2022/08/20 02:57:21;;;;;;;0.72;0.70;;;;;;;16.20;100.00;99496.55;1697024;82;21417;-53
2022/08/20 02:59:48;;;;;;;0.80;0.70;;;;;;;16.23;100.00;99500.41;1676519;83;22444;-53
2022/08/20 03:02:14;;;;;;;1.37;0.90;;;;;;;16.25;100.00;99492.98;1743115;80;20918;-53
2022/08/20 03:04:41;;;;;;;1.15;0.90;;;;;;;16.26;100.00;99495.21;1735836;80;20957;-53
2022/08/20 03:07:09;;;;;;;1.57;0.90;;;;;;;16.26;100.00;99493.36;1737976;80;20913;-53
2022/08/20 03:09:37;;;;;;;1.70;1.35;;;;;;;16.26;100.00;99489.78;1747278;80;21002;-53
2022/08/20 03:12:05;;;;;;;1.95;0.90;;;;;;;16.25;100.00;99489.40;1741047;80;21209;-53
2022/08/20 03:14:32;;;;;;;3.60;0.80;;;;;;;16.25;100.00;99496.19;1730431;80;20919;-53
2022/08/20 03:16:59;;;;;;;3.15;0.90;;;;;;;16.23;100.00;99494.97;1741821;80;21323;-52
2022/08/20 03:19:26;;;;;;;0.78;0.70;;;;;;;16.23;100.00;99492.75;1736512;80;20942;-53
2022/08/20 03:21:52;;;;;;;0.85;0.80;;;;;;;16.21;100.00;99495.58;1742012;80;21425;-52
2022/08/20 03:24:18;;;;;;;4.17;1.47;;;;;;;16.20;100.00;99502.47;1739174;80;21519;-53
2022/08/20 03:26:45;;;;;;;0.88;0.80;;;;;;;16.15;100.00;99498.76;1735989;80;21050;-53
2022/08/20 03:29:11;;;;;;;2.58;0.82;;;;;;;16.08;100.00;99497.95;1736264;80;21083;-53
2022/08/20 03:31:38;;;;;;;1.30;0.80;;;;;;;16.02;100.00;99493.85;1737768;80;21421;-52
2022/08/20 03:34:04;;;;;;;1.50;0.80;;;;;;;16.00;100.00;99499.01;1704698;82;21048;-53
2022/08/20 03:36:31;;;;;;;0.85;0.60;;;;;;;16.00;100.00;99486.30;1741406;80;22184;-53
2022/08/20 03:39:00;;;;;;;3.10;0.70;;;;;;;16.02;100.00;99488.91;1742020;80;21019;-53
2022/08/20 03:41:27;;;;;;;4.05;1.00;;;;;;;16.02;100.00;99490.27;1735742;80;21019;-52
2022/08/20 03:43:54;;;;;;;1.82;0.80;;;;;;;16.04;100.00;99493.26;1741491;80;21041;-53
2022/08/20 03:46:21;;;;;;;1.17;0.80;;;;;;;16.07;100.00;99497.59;1740925;80;21107;-53
2022/08/20 03:48:47;;;;;;;0.88;0.80;;;;;;;16.09;100.00;99499.69;1737486;80;21233;-52
2022/08/20 03:51:14;;;;;;;1.55;0.90;;;;;;;16.14;100.00;99502.45;1738246;80;21621;-52
2022/08/20 03:53:40;;;;;;;0.95;0.85;;;;;;;16.19;100.00;99504.80;1741034;80;21096;-52
2022/08/20 03:56:08;;;;;;;1.15;0.98;;;;;;;16.24;100.00;99503.98;1684645;83;21052;-52
2022/08/20 03:58:34;;;;;;;2.90;0.70;;;;;;;16.31;100.00;99505.25;1736441;80;21082;-52
2022/08/20 04:01:01;;;;;;;1.15;0.80;;;;;;;16.37;100.00;99506.63;1738469;80;21110;-53
2022/08/20 04:03:28;;;;;;;2.12;0.78;;;;;;;16.40;100.00;99505.92;1737208;80;21139;-52
2022/08/20 04:05:55;;;;;;;1.57;0.90;;;;;;;16.45;100.00;99510.98;1735765;80;21131;-52
2022/08/20 04:08:25;;;;;;;0.88;0.80;;;;;;;16.50;100.00;99511.00;1738124;80;21102;-52
2022/08/20 04:10:53;;;;;;;2.17;0.80;;;;;;;16.56;100.00;99506.97;1743338;80;21129;-53
2022/08/20 04:13:21;;;;;;;3.20;1.02;;;;;;;16.62;100.00;99512.83;1740918;80;21133;-52
2022/08/20 04:15:47;;;;;;;2.12;0.90;;;;;;;16.70;100.00;99515.44;1737033;80;21046;-52
2022/08/20 04:18:19;;;;;;;1.95;0.90;;;;;;;16.77;100.00;99514.84;1740431;80;21066;-52
2022/08/20 04:20:43;;;;;;;1.55;0.90;;;;;;;16.84;100.00;99512.02;1741286;80;20959;-53
2022/08/20 04:23:09;;;;;;;0.95;0.82;;;;;;;16.91;100.00;99509.72;1744354;80;21109;-53
2022/08/20 04:25:39;;;;;;;3.17;1.00;;;;;;;16.99;100.00;99513.56;1734934;80;21130;-53
2022/08/20 04:28:06;;;;;;;2.55;1.45;;;;;;;17.08;100.00;99513.34;1743206;80;21069;-54
2022/08/20 04:30:33;;;;;;;10.15;2.80;;;;;;;17.16;100.00;99510.88;1735983;80;21664;-52
2022/08/20 04:33:00;;;;;;;11.65;2.20;;;;;;;17.25;100.00;99503.84;1746074;80;21606;-52
2022/08/20 04:35:26;;;;;;;5.75;1.60;;;;;;;17.34;100.00;99507.19;1740664;80;21030;-52
2022/08/20 04:38:07;;;;;;;8.85;2.00;;;;;;;17.42;100.00;99501.13;1742183;80;22336;-52
2022/08/20 04:40:53;;;;;;;1.50;1.00;;;;;;;17.49;100.00;99503.23;1738458;80;21040;-52
2022/08/20 04:43:22;;;;;;;3.90;0.93;;;;;;;17.57;100.00;99509.42;1699650;82;21683;-52
2022/08/20 04:45:50;;;;;;;2.25;1.17;;;;;;;17.65;100.00;99508.34;1733090;81;21028;-52
2022/08/20 04:48:18;;;;;;;0.95;0.85;;;;;;;17.71;100.00;99500.53;1738379;80;21049;-52
2022/08/20 04:50:45;;;;;;;1.10;0.90;;;;;;;17.80;100.00;99500.27;1741925;80;21760;-52
2022/08/20 04:53:15;;;;;;;2.87;1.20;;;;;;;17.87;100.00;99493.33;1726734;81;20982;-52
2022/08/20 04:55:42;;;;;;;1.00;0.80;;;;;;;17.96;100.00;99494.42;1738805;80;22163;-52
2022/08/20 04:58:12;;;;;;;1.70;0.85;;;;;;;18.01;100.00;99495.80;1735796;80;21510;-52
2022/08/20 05:00:39;;;;;;;1.52;0.82;;;;;;;18.05;100.00;99491.81;1737542;80;21550;-52
2022/08/20 05:03:06;;;;;;;1.60;0.90;;;;;;;18.13;100.00;99495.25;1731593;80;21167;-52
2022/08/20 05:05:38;;;;;;;1.22;0.88;;;;;;;18.20;100.00;99487.46;1735276;80;21042;-52
2022/08/20 05:08:04;;;;;;;0.98;0.88;;;;;;;18.26;100.00;99480.99;1732718;80;21033;-52
2022/08/20 05:10:30;;;;;;;1.32;1.00;;;;;;;18.33;100.00;99486.78;1738271;80;21025;-52
2022/08/20 05:12:57;;;;;;;1.32;0.90;;;;;;;18.37;100.00;99489.11;1735337;80;21091;-52
2022/08/20 05:15:24;;;;;;;0.88;0.85;;;;;;;18.43;100.00;99486.38;1735512;80;21123;-52
2022/08/20 05:17:56;;;;;;;0.80;0.80;;;;;;;18.47;100.00;99484.61;1729894;80;21387;-52
2022/08/20 05:20:23;;;;;;;1.00;0.95;;;;;;;18.54;100.00;99483.63;1735679;80;21139;-53
2022/08/20 05:22:51;;;;;;;2.40;1.02;;;;;;;18.59;100.00;99482.75;1730654;80;21110;-52
2022/08/20 05:25:17;;;;;;;1.65;1.00;;;;;;;18.63;100.00;99481.47;1739033;80;21099;-52
2022/08/20 05:27:44;;;;;;;0.98;0.88;;;;;;;18.64;100.00;99482.34;1738824;80;22985;-52
2022/08/20 05:30:11;;;;;;;0.80;0.80;;;;;;;18.66;100.00;99478.50;1737827;80;21029;-52
2022/08/20 05:32:38;;;;;;;3.37;1.00;;;;;;;18.69;100.00;99472.80;1742639;80;21026;-52
2022/08/20 05:35:08;;;;;;;1.00;0.90;;;;;;;18.73;100.00;99463.83;1746196;80;21606;-52
2022/08/20 05:37:36;;;;;;;2.55;0.80;;;;;;;18.77;100.00;99464.81;1717079;82;21062;-53
2022/08/20 05:40:09;;;;;;;1.77;0.90;;;;;;;18.83;100.00;99461.55;1684193;83;21184;-53
2022/08/20 05:42:36;;;;;;;1.57;0.85;;;;;;;18.92;100.00;99464.47;1680041;83;20958;-53
2022/08/20 05:45:04;;;;;;;2.77;0.80;;;;;;;18.99;100.00;99462.44;1677684;83;20985;-53
2022/08/20 05:47:30;;;;;;;0.80;0.70;;;;;;;19.08;100.00;99466.22;1714982;82;21060;-53
2022/08/20 05:49:57;;;;;;;0.68;0.68;;;;;;;19.20;100.00;99458.34;1683464;83;21001;-53
2022/08/20 05:52:23;;;;;;;2.10;1.00;;;;;;;19.35;100.00;99467.02;1692778;83;22133;-53
2022/08/20 05:54:52;;;;;;;1.40;1.00;;;;;;;19.47;100.00;99468.67;1675596;83;20920;-53
2022/08/20 05:57:19;;;;;;;3.15;0.80;;;;;;;19.55;100.00;99457.96;1680275;83;21041;-53
2022/08/20 05:59:46;;;;;;;1.10;1.00;;;;;;;19.62;100.00;99459.13;1692175;83;20873;-52
2022/08/20 06:04:57;;;;;;;0.85;0.80;;;;;;;19.73;100.00;99457.67;1692258;82;21291;-52
2022/08/20 06:07:24;;;;;;;0.95;0.75;;;;;;;19.83;100.00;99459.03;1687567;83;21654;-53
2022/08/20 06:09:50;;;;;;;3.12;0.60;;;;;;;19.96;100.00;99463.26;1693546;83;21865;-52
2022/08/20 06:12:17;;;;;;;0.68;0.53;;;;;;;20.14;100.00;99458.48;1685667;82;21535;-52
2022/08/20 06:14:46;;;;;;;0.93;0.50;;;;;;;20.29;100.00;99459.28;1689791;82;21351;-54
2022/08/20 06:17:15;;;;;;;0.98;0.90;;;;;;;20.44;100.00;99462.98;1692063;82;21205;-53
2022/08/20 06:19:43;;;;;;;0.40;0.40;;;;;;;20.52;100.00;99457.16;1687050;83;21046;-53
2022/08/20 06:22:09;;;;;;;0.60;0.50;;;;;;;20.61;100.00;99460.89;1691789;82;20964;-53
2022/08/20 06:24:36;;;;;;;3.33;0.50;;;;;;;20.71;100.00;99472.70;1697110;83;20921;-53
2022/08/20 06:27:03;;;;;;;0.70;0.60;;;;;;;20.76;100.00;99463.54;1690275;82;21057;-52
2022/08/20 06:29:34;;;;;;;0.75;0.68;;;;;;;20.76;100.00;99467.14;1696429;82;22264;-54
2022/08/20 06:32:00;;;;;;;0.57;0.50;;;;;;;20.74;100.00;99469.69;1691503;82;21059;-55
2022/08/20 06:34:27;;;;;;;0.75;0.50;;;;;;;20.74;100.00;99472.42;1685738;83;21045;-52
2022/08/20 06:36:55;;;;;;;0.60;0.50;;;;;;;20.72;100.00;99475.30;1682422;83;21455;-52
2022/08/20 06:39:22;;;;;;;1.22;0.42;;;;;;;20.74;100.00;99472.42;1700680;82;21093;-52
2022/08/20 06:41:50;;;;;;;0.85;0.80;;;;;;;20.76;100.00;99479.95;1735091;80;21241;-52
2022/08/20 06:44:17;;;;;;;0.37;0.37;;;;;;;20.73;100.00;99480.27;1732222;80;21095;-52
2022/08/20 06:46:44;;;;;;;1.22;0.50;;;;;;;20.71;100.00;99478.17;1730093;80;21370;-52
2022/08/20 06:49:11;;;;;;;1.20;0.50;;;;;;;20.71;100.00;99468.59;1734811;81;21102;-52
2022/08/20 06:51:37;;;;;;;0.50;0.50;;;;;;;20.72;100.00;99475.80;1734262;80;21133;-51
2022/08/20 06:54:04;;;;;;;0.60;0.47;;;;;;;20.73;100.00;99466.59;1739154;80;21184;-52
2022/08/20 06:56:32;;;;;;;1.05;0.50;;;;;;;20.77;100.00;99466.64;1728143;80;21501;-53
2022/08/20 06:58:58;;;;;;;1.55;0.50;;;;;;;20.82;100.00;99468.45;1737850;80;21110;-50
2022/08/20 07:01:25;;;;;;;0.70;0.50;;;;;;;20.84;100.00;99476.52;1735577;80;21115;-55
2022/08/20 07:03:51;;;;;;;0.60;0.50;;;;;;;20.81;100.00;99467.22;1736973;80;21151;-53
2022/08/20 07:06:18;;;;;;;0.85;0.50;;;;;;;20.80;100.00;99472.33;1728346;80;21141;-53
2022/08/20 07:08:45;;;;;;;1.15;0.50;;;;;;;20.76;100.00;99475.84;1740059;80;21088;-53
2022/08/20 07:11:11;;;;;;;0.82;0.60;;;;;;;20.74;100.00;99482.00;1716495;80;21085;-53
2022/08/20 07:13:40;;;;;;;1.30;0.50;;;;;;;20.73;100.00;99485.73;1733187;80;21042;-53
2022/08/20 07:16:06;;;;;;;0.50;0.50;;;;;;;20.73;100.00;99487.10;1699900;82;21008;-54
2022/08/20 07:18:33;;;;;;;1.05;0.50;;;;;;;20.72;100.00;99494.94;1735993;80;21091;-54
2022/08/20 07:21:00;;;;;;;2.52;0.50;;;;;;;20.69;100.00;99493.85;1737949;80;21109;-53
2022/08/20 07:23:26;;;;;;;0.50;0.50;;;;;;;20.67;100.00;99495.89;1729223;80;21073;-54
2022/08/20 07:25:54;;;;;;;0.65;0.60;;;;;;;20.68;100.00;99499.83;1698973;82;21090;-54
2022/08/20 07:28:23;;;;;;;3.52;0.50;;;;;;;20.67;100.00;99500.83;1746675;80;21030;-54
2022/08/20 07:33:39;;;;;;;5.00;0.80;;;;;;;20.67;100.00;99505.47;1735831;80;21069;-54
2022/08/20 07:36:04;;;;;;;3.50;0.60;;;;;;;20.61;100.00;99500.55;1734631;80;21043;-54
2022/08/20 07:38:31;;;;;;;0.93;0.60;;;;;;;20.57;100.00;99503.23;1736573;80;21476;-54
2022/08/20 07:41:01;;;;;;;0.50;0.50;;;;;;;20.54;100.00;99504.36;1743090;80;20993;-53
2022/08/20 07:43:28;;;;;;;1.12;0.50;;;;;;;20.53;100.00;99511.34;1740623;80;21074;-54
2022/08/20 07:45:57;;;;;;;2.25;0.50;;;;;;;20.52;100.00;99505.50;1744181;80;21045;-54
2022/08/20 07:48:24;;;;;;;2.87;0.47;;;;;;;20.50;100.00;99509.74;1732733;80;21431;-54
2022/08/20 07:50:53;;;;;;;0.90;0.40;;;;;;;20.50;100.00;99500.17;1725173;80;21018;-54
2022/08/20 07:53:20;;;;;;;1.17;0.50;;;;;;;20.52;100.00;99494.56;1730678;81;21122;-54
2022/08/20 07:55:46;;;;;;;4.97;0.50;;;;;;;20.54;100.00;99493.42;1722588;80;21197;-54
2022/08/20 07:58:14;;;;;;;0.50;0.40;;;;;;;20.55;100.00;99492.92;1730388;80;21115;-54
2022/08/20 08:00:41;;;;;;;0.90;0.50;;;;;;;20.57;100.00;99497.25;1733459;80;21144;-54
2022/08/20 08:03:08;;;;;;;0.78;0.40;;;;;;;20.60;100.00;99496.95;1743048;80;21125;-54
2022/08/20 08:05:37;;;;;;;2.90;0.50;;;;;;;20.66;100.00;99490.06;1727195;80;21474;-54
2022/08/20 08:08:08;;;;;;;0.40;0.40;;;;;;;20.68;100.00;99494.35;1740900;80;21153;-54
2022/08/20 08:10:36;;;;;;;2.35;0.40;;;;;;;20.70;100.00;99494.22;1734216;80;21010;-53
2022/08/20 08:13:06;;;;;;;0.40;0.40;;;;;;;20.71;100.00;99492.71;1745409;80;21116;-52
2022/08/20 08:15:34;;;;;;;2.60;0.40;;;;;;;20.74;100.00;99485.59;1727221;80;21022;-53
2022/08/20 08:18:06;;;;;;;0.40;0.35;;;;;;;20.78;100.00;99477.95;1727640;81;21525;-53
2022/08/20 08:20:37;;;;;;;1.70;0.40;;;;;;;20.84;100.00;99478.72;1726741;80;22092;-53
2022/08/20 08:23:04;;;;;;;0.68;0.45;;;;;;;20.91;100.00;99479.02;1732756;80;21132;-53
2022/08/20 08:25:32;;;;;;;0.40;0.40;;;;;;;21.00;100.00;99479.02;1740848;80;21091;-53
2022/08/20 08:27:59;;;;;;;1.10;0.40;;;;;;;21.09;100.00;99478.14;1734010;80;21054;-53
2022/08/20 08:30:27;;;;;;;1.30;0.40;;;;;;;21.18;100.00;99475.02;1739375;80;20960;-52
2022/08/20 08:35:40;;;;;;;0.40;0.40;;;;;;;21.28;100.00;99476.37;1730695;80;21112;-52
2022/08/20 08:38:07;;;;;;;0.50;0.47;;;;;;;21.35;100.00;99480.27;1732629;80;21061;-53
2022/08/20 08:40:33;;;;;;;1.57;0.40;;;;;;;21.36;100.00;99473.75;1738172;80;21085;-52
2022/08/20 08:43:01;;;;;;;0.80;0.30;;;;;;;21.39;100.00;99466.12;1738011;80;21118;-52
2022/08/20 08:45:44;;;;;;;5.95;0.50;;;;;;;21.45;100.00;99470.12;1703238;82;21564;-53
2022/08/20 08:48:12;;;;;;;1.05;0.50;;;;;;;21.53;100.00;99467.49;1737457;80;21038;-53
2022/08/20 08:50:41;;;;;;;1.72;0.55;;;;;;;21.53;100.00;99472.47;1736987;80;20947;-53
2022/08/20 08:53:09;;;;;;;0.93;0.50;;;;;;;21.56;100.00;99472.68;1748699;80;20895;-52
2022/08/20 08:55:36;;;;;;;0.82;0.50;;;;;;;21.61;100.00;99470.34;1738505;80;21103;-52
2022/08/20 08:58:02;;;;;;;1.00;0.57;;;;;;;21.64;100.00;99468.68;1681846;83;21532;-53
2022/08/20 09:00:29;;;;;;;2.02;0.40;;;;;;;21.70;100.00;99468.06;1729738;80;21404;-52
2022/08/20 09:03:09;;;;;;;0.47;0.40;;;;;;;21.77;100.00;99465.61;1734029;80;21056;-53
2022/08/20 09:05:44;;;;;;;2.87;0.50;;;;;;;21.84;100.00;99467.58;1739187;80;20935;-53
2022/08/20 09:08:14;;;;;;;0.40;0.33;;;;;;;21.92;100.00;99467.33;1733045;80;20871;-53
2022/08/20 09:10:43;;;;;;;1.75;0.40;;;;;;;22.00;100.00;99472.43;1728275;80;21069;-52
2022/08/20 09:13:10;;;;;;;0.47;0.37;;;;;;;22.08;100.00;99470.29;1741352;80;20958;-53
2022/08/20 09:15:37;;;;;;;0.40;0.30;;;;;;;22.16;100.00;99470.38;1735259;80;20974;-53
2022/08/20 09:18:03;;;;;;;0.20;0.20;;;;;;;22.22;100.00;99471.12;1738665;80;20942;-53
2022/08/20 09:20:30;;;;;;;0.33;0.30;;;;;;;22.24;100.00;99469.96;1739581;80;20928;-53
2022/08/20 09:22:56;;;;;;;0.45;0.20;;;;;;;22.24;100.00;99470.47;1735689;80;21132;-53
2022/08/20 09:25:22;;;;;;;1.02;0.30;;;;;;;22.26;100.00;99469.81;1740297;80;20975;-52
2022/08/20 09:27:49;;;;;;;0.57;0.20;;;;;;;22.29;100.00;99472.22;1740338;81;20966;-53
2022/08/20 09:30:16;;;;;;;0.30;0.30;;;;;;;22.32;100.00;99471.92;1728216;80;21664;-52
2022/08/20 09:32:42;;;;;;;0.72;0.28;;;;;;;22.34;100.00;99474.52;1732223;81;21650;-53
2022/08/20 09:35:09;;;;;;;0.40;0.25;;;;;;;22.35;100.00;99473.00;1743317;80;21017;-52
2022/08/20 09:37:36;;;;;;;0.20;0.20;;;;;;;22.39;100.00;99476.27;1743565;80;21100;-52
2022/08/20 09:40:05;;;;;;;0.62;0.20;;;;;;;22.40;100.00;99472.52;1744665;80;21102;-53
2022/08/20 09:42:33;;;;;;;0.28;0.20;;;;;;;22.40;100.00;99470.64;1731891;80;21087;-53
2022/08/20 09:45:00;;;;;;;0.30;0.20;;;;;;;22.40;100.00;99469.27;1737217;80;21029;-53
2022/08/20 09:47:26;;;;;;;0.20;0.20;;;;;;;22.41;100.00;99464.14;1739184;80;21260;-52
2022/08/20 09:49:53;;;;;;;0.30;0.28;;;;;;;22.41;100.00;99469.63;1680059;83;21033;-52
2022/08/20 09:52:25;;;;;;;0.72;0.20;;;;;;;22.42;100.00;99471.34;1696992;82;21022;-52
2022/08/20 09:54:54;;;;;;;0.20;0.20;;;;;;;22.44;100.00;99471.20;1739807;80;21539;-53
2022/08/20 09:57:20;;;;;;;3.22;0.20;;;;;;;22.48;100.00;99470.72;1742687;80;21422;-53
2022/08/20 09:59:56;;;;;;;0.30;0.20;;;;;;;22.49;100.00;99460.10;1733567;80;22096;-52
2022/08/20 10:02:23;;;;;;;0.17;0.17;;;;;;;22.49;100.00;99470.20;1739561;81;21090;-52
2022/08/20 10:04:50;;;;;;;1.10;0.20;;;;;;;22.52;100.00;99474.02;1736248;80;20967;-53
2022/08/20 10:07:17;;;;;;;0.50;0.20;;;;;;;22.55;100.00;99464.09;1742753;80;21064;-54
2022/08/20 10:09:44;;;;;;;0.28;0.20;;;;;;;22.55;100.00;99466.83;1733620;80;21105;-53
2022/08/20 10:12:10;;;;;;;0.20;0.20;;;;;;;22.57;100.00;99470.28;1737759;80;21185;-53
2022/08/20 10:14:37;;;;;;;2.65;0.23;;;;;;;22.62;100.00;99472.06;1738975;81;21034;-52
2022/08/20 10:17:03;;;;;;;0.20;0.20;;;;;;;22.67;100.00;99473.81;1735734;80;21121;-53
2022/08/20 10:19:31;;;;;;;0.30;0.30;;;;;;;22.68;100.00;99474.17;1731277;80;21082;-53
2022/08/20 10:21:58;;;;;;;0.33;0.30;;;;;;;22.67;100.00;99475.70;1739765;80;21061;-54
2022/08/20 10:24:25;;;;;;;0.35;0.20;;;;;;;22.68;100.00;99473.31;1742694;81;21101;-53
2022/08/20 10:26:57;;;;;;;0.20;0.20;;;;;;;22.67;100.00;99472.45;1737282;80;21096;-52
2022/08/20 10:29:25;;;;;;;0.20;0.20;;;;;;;22.69;100.00;99469.55;1737198;80;21648;-53
2022/08/20 10:31:52;;;;;;;0.60;0.30;;;;;;;22.70;100.00;99467.16;1734611;80;21295;-53
2022/08/20 10:34:18;;;;;;;0.30;0.20;;;;;;;22.71;100.00;99463.41;1736547;80;21037;-53
2022/08/20 10:36:45;;;;;;;0.90;0.30;;;;;;;22.74;100.00;99460.32;1742071;80;21844;-53
2022/08/20 10:39:12;;;;;;;1.87;0.30;;;;;;;22.78;100.00;99462.64;1741088;80;21108;-53
2022/08/20 10:41:39;;;;;;;0.30;0.30;;;;;;;22.83;100.00;99460.78;1738963;80;21034;-53
2022/08/20 10:44:05;;;;;;;1.40;0.20;;;;;;;22.86;100.00;99461.34;1734595;80;21180;-53
2022/08/20 10:48:36;;;;;;;0.30;0.30;;;;;;;22.97;100.00;99461.56;1792771;78;22708;-53
2022/08/20 10:51:03;;;;;;;0.53;0.40;;;;;;;22.99;100.00;99467.77;1772253;79;21096;-53
2022/08/20 10:53:29;;;;;;;1.12;0.30;;;;;;;23.01;100.00;99472.09;1763957;79;21155;-53
2022/08/20 10:55:56;;;;;;;0.60;0.25;;;;;;;23.05;100.00;99475.39;1765766;79;20945;-55
2022/08/20 10:58:24;;;;;;;0.42;0.28;;;;;;;23.07;100.00;99466.97;1774719;78;21067;-53
2022/08/20 11:00:51;;;;;;;1.35;0.30;;;;;;;23.11;100.00;99467.87;1776384;78;21457;-53
2022/08/20 11:03:18;;;;;;;0.35;0.30;;;;;;;23.14;100.00;99465.33;1774193;78;21353;-54
2022/08/20 11:05:46;;;;;;;0.47;0.40;;;;;;;23.16;100.00;99466.87;1720292;81;21027;-53
2022/08/20 11:08:12;;;;;;;0.40;0.30;;;;;;;23.18;100.00;99463.45;1719382;81;20903;-53
2022/08/20 11:10:39;;;;;;;0.37;0.20;;;;;;;23.17;100.00;99460.36;1719019;81;21041;-53
2022/08/20 11:13:07;;;;;;;0.42;0.30;;;;;;;23.20;100.00;99460.55;1719879;81;20999;-53
2022/08/20 11:15:36;;;;;;;0.50;0.30;;;;;;;23.20;100.00;99457.81;1723036;81;21130;-53
2022/08/20 11:18:05;;;;;;;0.35;0.35;;;;;;;23.20;100.00;99460.05;1721577;81;20971;-53
2022/08/20 11:20:31;;;;;;;0.28;0.28;;;;;;;23.19;100.00;99456.09;1717265;81;21515;-54
2022/08/20 11:22:58;;;;;;;0.30;0.30;;;;;;;23.18;100.00;99452.48;1720291;81;22005;-54
2022/08/20 11:25:25;;;;;;;0.50;0.30;;;;;;;23.16;100.00;99453.14;1717828;81;21079;-53
2022/08/20 11:27:52;;;;;;;0.28;0.23;;;;;;;23.13;100.00;99452.62;1714091;81;21055;-53
2022/08/20 11:30:28;;;;;;;0.30;0.30;;;;;;;23.09;100.00;99456.70;1725035;81;21165;-53
2022/08/20 11:32:55;;;;;;;0.23;0.20;;;;;;;23.04;100.00;99446.20;1720426;81;21054;-53
2022/08/20 11:35:22;;;;;;;0.30;0.30;;;;;;;23.02;100.00;99448.25;1723308;81;21710;-53
2022/08/20 11:37:50;;;;;;;0.78;0.30;;;;;;;23.02;100.00;99445.50;1730858;81;21074;-53
2022/08/20 11:40:17;;;;;;;5.35;0.60;;;;;;;23.06;100.00;99453.75;1726723;81;21532;-53